sensor_id;sensor_type;location;lat;lon;timestamp;temperature;humidity
8715;DHT22;4394;51.208;8.904;2023-03-26T00:01:00;6.80;99.90
8715;DHT22;4394;51.208;8.904;2023-03-26T00:03:52;6.80;99.90
8715;DHT22;4394;51.208;8.904;2023-03-26T00:06:44;6.80;99.90
8715;DHT22;4394;51.208;8.904;2023-03-26T00:09:35;6.60;99.90
8715;DHT22;4394;51.208;8.904;2023-03-26T00:12:23;6.50;99.90
8715;DHT22;4394;51.208;8.904;2023-03-26T00:15:11;6.50;99.90
8715;DHT22;4394;51.208;8.904;2023-03-26T00:18:00;6.50;99.90
8715;DHT22;4394;51.208;8.904;2023-03-26T00:20:48;6.50;99.90
8715;DHT22;4394;51.208;8.904;2023-03-26T00:23:38;6.40;99.90
8715;DHT22;4394;51.208;8.904;2023-03-26T00:26:27;6.40;99.90
8715;DHT22;4394;51.208;8.904;2023-03-26T00:29:16;6.30;99.90
8715;DHT22;4394;51.208;8.904;2023-03-26T00:32:05;6.30;99.90
8715;DHT22;4394;51.208;8.904;2023-03-26T00:34:53;6.30;99.90
8715;DHT22;4394;51.208;8.904;2023-03-26T00:37:42;6.20;99.90
8715;DHT22;4394;51.208;8.904;2023-03-26T00:40:33;6.20;99.90
8715;DHT22;4394;51.208;8.904;2023-03-26T00:43:22;6.20;99.90
8715;DHT22;4394;51.208;8.904;2023-03-26T00:46:12;6.10;99.90
8715;DHT22;4394;51.208;8.904;2023-03-26T00:49:01;6.10;99.90
8715;DHT22;4394;51.208;8.904;2023-03-26T00:51:49;6.10;99.90
8715;DHT22;4394;51.208;8.904;2023-03-26T00:54:37;6.00;99.90
8715;DHT22;4394;51.208;8.904;2023-03-26T00:57:27;6.10;99.90
8715;DHT22;4394;51.208;8.904;2023-03-26T01:00:27;6.10;99.90
8715;DHT22;4394;51.208;8.904;2023-03-26T01:03:18;6.20;99.90
8715;DHT22;4394;51.208;8.904;2023-03-26T01:06:19;6.20;99.90
8715;DHT22;4394;51.208;8.904;2023-03-26T01:09:14;6.20;99.90
8715;DHT22;4394;51.208;8.904;2023-03-26T01:12:06;6.40;99.90
8715;DHT22;4394;51.208;8.904;2023-03-26T01:14:58;6.40;99.90
8715;DHT22;4394;51.208;8.904;2023-03-26T01:17:47;6.40;99.90
8715;DHT22;4394;51.208;8.904;2023-03-26T01:20:39;6.40;99.90
8715;DHT22;4394;51.208;8.904;2023-03-26T01:23:38;6.40;99.90
8715;DHT22;4394;51.208;8.904;2023-03-26T01:26:41;6.60;99.90
8715;DHT22;4394;51.208;8.904;2023-03-26T01:29:40;6.40;99.90
8715;DHT22;4394;51.208;8.904;2023-03-26T01:32:51;6.50;99.90
8715;DHT22;4394;51.208;8.904;2023-03-26T01:35:48;6.60;99.90
8715;DHT22;4394;51.208;8.904;2023-03-26T01:38:43;6.60;99.90
8715;DHT22;4394;51.208;8.904;2023-03-26T01:41:39;6.60;99.90
8715;DHT22;4394;51.208;8.904;2023-03-26T01:44:33;6.70;99.90
8715;DHT22;4394;51.208;8.904;2023-03-26T01:47:22;6.70;99.90
8715;DHT22;4394;51.208;8.904;2023-03-26T01:50:11;6.70;99.90
8715;DHT22;4394;51.208;8.904;2023-03-26T01:52:59;6.90;99.90
8715;DHT22;4394;51.208;8.904;2023-03-26T01:55:54;6.80;99.90
8715;DHT22;4394;51.208;8.904;2023-03-26T01:59:03;6.80;99.90
8715;DHT22;4394;51.208;8.904;2023-03-26T02:01:57;6.80;99.90
8715;DHT22;4394;51.208;8.904;2023-03-26T02:04:51;6.80;99.90
8715;DHT22;4394;51.208;8.904;2023-03-26T02:07:43;6.80;99.90
8715;DHT22;4394;51.208;8.904;2023-03-26T02:10:36;6.90;99.90
8715;DHT22;4394;51.208;8.904;2023-03-26T02:13:25;6.90;99.90
8715;DHT22;4394;51.208;8.904;2023-03-26T02:16:16;6.90;99.90
8715;DHT22;4394;51.208;8.904;2023-03-26T02:19:04;6.90;99.90
8715;DHT22;4394;51.208;8.904;2023-03-26T02:22:01;7.00;99.90
8715;DHT22;4394;51.208;8.904;2023-03-26T02:24:50;7.00;99.90
8715;DHT22;4394;51.208;8.904;2023-03-26T02:27:38;7.00;99.90
8715;DHT22;4394;51.208;8.904;2023-03-26T02:30:26;7.00;99.90
8715;DHT22;4394;51.208;8.904;2023-03-26T02:33:17;7.10;99.90
8715;DHT22;4394;51.208;8.904;2023-03-26T02:36:06;7.00;99.90
8715;DHT22;4394;51.208;8.904;2023-03-26T02:38:55;7.00;99.90
8715;DHT22;4394;51.208;8.904;2023-03-26T02:41:43;7.00;99.90
8715;DHT22;4394;51.208;8.904;2023-03-26T02:44:31;7.10;99.90
8715;DHT22;4394;51.208;8.904;2023-03-26T02:47:19;7.10;99.90
8715;DHT22;4394;51.208;8.904;2023-03-26T02:50:09;7.10;99.90
8715;DHT22;4394;51.208;8.904;2023-03-26T02:52:57;7.10;99.90
8715;DHT22;4394;51.208;8.904;2023-03-26T02:55:46;7.10;99.90
8715;DHT22;4394;51.208;8.904;2023-03-26T02:58:34;7.20;99.90
8715;DHT22;4394;51.208;8.904;2023-03-26T03:01:22;7.20;99.90
8715;DHT22;4394;51.208;8.904;2023-03-26T03:04:11;7.20;99.90
8715;DHT22;4394;51.208;8.904;2023-03-26T03:07:01;7.20;99.90
8715;DHT22;4394;51.208;8.904;2023-03-26T03:09:48;7.20;99.90
8715;DHT22;4394;51.208;8.904;2023-03-26T03:12:37;7.20;99.90
8715;DHT22;4394;51.208;8.904;2023-03-26T03:15:25;7.20;99.90
8715;DHT22;4394;51.208;8.904;2023-03-26T03:18:13;7.20;99.90
8715;DHT22;4394;51.208;8.904;2023-03-26T03:21:01;7.20;99.90
8715;DHT22;4394;51.208;8.904;2023-03-26T03:23:50;7.20;99.90
8715;DHT22;4394;51.208;8.904;2023-03-26T03:26:38;7.20;99.90
8715;DHT22;4394;51.208;8.904;2023-03-26T03:29:26;7.20;99.90
8715;DHT22;4394;51.208;8.904;2023-03-26T03:32:14;7.30;99.90
8715;DHT22;4394;51.208;8.904;2023-03-26T03:35:03;7.30;99.90
8715;DHT22;4394;51.208;8.904;2023-03-26T03:37:51;7.30;99.90
8715;DHT22;4394;51.208;8.904;2023-03-26T03:40:40;7.30;99.90
8715;DHT22;4394;51.208;8.904;2023-03-26T03:43:28;7.30;99.90
8715;DHT22;4394;51.208;8.904;2023-03-26T03:46:18;7.30;99.90
8715;DHT22;4394;51.208;8.904;2023-03-26T03:49:06;7.40;99.90
8715;DHT22;4394;51.208;8.904;2023-03-26T03:51:54;7.40;99.90
8715;DHT22;4394;51.208;8.904;2023-03-26T03:54:42;7.40;99.90
8715;DHT22;4394;51.208;8.904;2023-03-26T03:57:32;7.40;99.90
8715;DHT22;4394;51.208;8.904;2023-03-26T04:00:20;7.40;99.90
8715;DHT22;4394;51.208;8.904;2023-03-26T04:03:08;7.40;99.90
8715;DHT22;4394;51.208;8.904;2023-03-26T04:06:00;7.40;99.90
8715;DHT22;4394;51.208;8.904;2023-03-26T04:08:48;7.40;99.90
8715;DHT22;4394;51.208;8.904;2023-03-26T04:11:36;7.40;99.90
8715;DHT22;4394;51.208;8.904;2023-03-26T04:14:25;7.40;99.90
8715;DHT22;4394;51.208;8.904;2023-03-26T04:17:13;7.40;99.90
8715;DHT22;4394;51.208;8.904;2023-03-26T04:20:01;7.40;99.90
8715;DHT22;4394;51.208;8.904;2023-03-26T04:22:52;7.40;99.90
8715;DHT22;4394;51.208;8.904;2023-03-26T04:25:41;7.50;99.90
8715;DHT22;4394;51.208;8.904;2023-03-26T04:28:33;7.50;99.90
8715;DHT22;4394;51.208;8.904;2023-03-26T04:31:30;7.50;99.90
8715;DHT22;4394;51.208;8.904;2023-03-26T04:34:21;7.50;99.90
8715;DHT22;4394;51.208;8.904;2023-03-26T04:37:16;7.50;99.90
8715;DHT22;4394;51.208;8.904;2023-03-26T04:40:11;7.40;99.90
8715;DHT22;4394;51.208;8.904;2023-03-26T04:43:00;7.50;99.90
8715;DHT22;4394;51.208;8.904;2023-03-26T04:45:49;7.40;99.90
8715;DHT22;4394;51.208;8.904;2023-03-26T04:48:39;7.40;99.90
8715;DHT22;4394;51.208;8.904;2023-03-26T04:51:32;7.50;99.90
8715;DHT22;4394;51.208;8.904;2023-03-26T04:54:24;7.40;99.90
8715;DHT22;4394;51.208;8.904;2023-03-26T04:57:14;7.50;99.90
8715;DHT22;4394;51.208;8.904;2023-03-26T05:00:05;7.50;99.90
8715;DHT22;4394;51.208;8.904;2023-03-26T05:03:01;7.40;99.90
8715;DHT22;4394;51.208;8.904;2023-03-26T05:05:50;7.40;99.90
8715;DHT22;4394;51.208;8.904;2023-03-26T05:08:38;7.40;99.90
8715;DHT22;4394;51.208;8.904;2023-03-26T05:11:27;7.40;99.90
8715;DHT22;4394;51.208;8.904;2023-03-26T05:14:16;7.40;99.90
8715;DHT22;4394;51.208;8.904;2023-03-26T05:17:04;7.40;99.90
8715;DHT22;4394;51.208;8.904;2023-03-26T05:19:56;7.40;99.90
8715;DHT22;4394;51.208;8.904;2023-03-26T05:22:46;7.40;99.90
8715;DHT22;4394;51.208;8.904;2023-03-26T05:25:34;7.40;99.90
8715;DHT22;4394;51.208;8.904;2023-03-26T05:28:22;7.30;99.90
8715;DHT22;4394;51.208;8.904;2023-03-26T05:31:12;7.30;99.90
8715;DHT22;4394;51.208;8.904;2023-03-26T05:34:01;7.30;99.90
8715;DHT22;4394;51.208;8.904;2023-03-26T05:36:49;7.30;99.90
8715;DHT22;4394;51.208;8.904;2023-03-26T05:39:38;7.30;99.90
8715;DHT22;4394;51.208;8.904;2023-03-26T05:42:26;7.30;99.90
8715;DHT22;4394;51.208;8.904;2023-03-26T05:45:14;7.30;99.90
8715;DHT22;4394;51.208;8.904;2023-03-26T05:48:03;7.30;99.90
8715;DHT22;4394;51.208;8.904;2023-03-26T05:50:52;7.30;99.90
8715;DHT22;4394;51.208;8.904;2023-03-26T05:53:41;7.40;99.90
8715;DHT22;4394;51.208;8.904;2023-03-26T05:56:31;7.30;99.90
8715;DHT22;4394;51.208;8.904;2023-03-26T05:59:19;7.40;99.90
8715;DHT22;4394;51.208;8.904;2023-03-26T06:02:08;7.30;99.90
8715;DHT22;4394;51.208;8.904;2023-03-26T06:04:56;7.30;99.90
8715;DHT22;4394;51.208;8.904;2023-03-26T06:07:44;7.30;99.90
8715;DHT22;4394;51.208;8.904;2023-03-26T06:10:32;7.40;99.90
8715;DHT22;4394;51.208;8.904;2023-03-26T06:13:21;7.40;99.90
8715;DHT22;4394;51.208;8.904;2023-03-26T06:16:11;7.40;99.90
8715;DHT22;4394;51.208;8.904;2023-03-26T06:19:13;7.50;99.90
8715;DHT22;4394;51.208;8.904;2023-03-26T06:22:01;7.50;99.90
8715;DHT22;4394;51.208;8.904;2023-03-26T06:24:49;7.50;99.90
8715;DHT22;4394;51.208;8.904;2023-03-26T06:27:38;7.50;99.90
8715;DHT22;4394;51.208;8.904;2023-03-26T06:30:27;7.60;99.90
8715;DHT22;4394;51.208;8.904;2023-03-26T06:33:16;7.60;99.90
8715;DHT22;4394;51.208;8.904;2023-03-26T06:36:04;7.60;99.90
8715;DHT22;4394;51.208;8.904;2023-03-26T06:38:52;7.70;99.90
8715;DHT22;4394;51.208;8.904;2023-03-26T06:41:41;7.80;99.90
8715;DHT22;4394;51.208;8.904;2023-03-26T06:44:29;7.80;99.90
8715;DHT22;4394;51.208;8.904;2023-03-26T06:47:18;7.80;99.90
8715;DHT22;4394;51.208;8.904;2023-03-26T06:50:07;7.90;99.90
8715;DHT22;4394;51.208;8.904;2023-03-26T06:52:57;7.90;99.90
8715;DHT22;4394;51.208;8.904;2023-03-26T06:55:45;7.90;99.90
8715;DHT22;4394;51.208;8.904;2023-03-26T06:58:33;8.00;99.90
8715;DHT22;4394;51.208;8.904;2023-03-26T07:01:22;8.00;99.90
8715;DHT22;4394;51.208;8.904;2023-03-26T07:04:11;8.00;99.90
8715;DHT22;4394;51.208;8.904;2023-03-26T07:07:00;8.00;99.90
8715;DHT22;4394;51.208;8.904;2023-03-26T07:09:48;8.00;99.90
8715;DHT22;4394;51.208;8.904;2023-03-26T07:12:36;8.00;99.90
8715;DHT22;4394;51.208;8.904;2023-03-26T07:15:25;8.00;99.90
8715;DHT22;4394;51.208;8.904;2023-03-26T07:18:15;8.00;99.90
8715;DHT22;4394;51.208;8.904;2023-03-26T07:21:05;8.00;99.90
8715;DHT22;4394;51.208;8.904;2023-03-26T07:23:54;8.10;99.90
8715;DHT22;4394;51.208;8.904;2023-03-26T07:26:49;8.10;99.90
8715;DHT22;4394;51.208;8.904;2023-03-26T07:29:44;8.10;99.90
8715;DHT22;4394;51.208;8.904;2023-03-26T07:32:38;8.20;99.90
8715;DHT22;4394;51.208;8.904;2023-03-26T07:35:33;8.10;99.90
8715;DHT22;4394;51.208;8.904;2023-03-26T07:38:33;8.20;99.90
8715;DHT22;4394;51.208;8.904;2023-03-26T07:41:28;8.20;99.90
8715;DHT22;4394;51.208;8.904;2023-03-26T07:44:26;8.20;99.90
8715;DHT22;4394;51.208;8.904;2023-03-26T07:47:22;8.20;99.90
8715;DHT22;4394;51.208;8.904;2023-03-26T07:50:15;8.20;99.90
8715;DHT22;4394;51.208;8.904;2023-03-26T07:53:05;8.30;99.90
8715;DHT22;4394;51.208;8.904;2023-03-26T07:55:59;8.30;99.90
8715;DHT22;4394;51.208;8.904;2023-03-26T07:59:04;8.20;99.90
8715;DHT22;4394;51.208;8.904;2023-03-26T08:02:02;8.30;99.90
8715;DHT22;4394;51.208;8.904;2023-03-26T08:05:06;8.30;99.90
8715;DHT22;4394;51.208;8.904;2023-03-26T08:08:04;8.30;99.90
8715;DHT22;4394;51.208;8.904;2023-03-26T08:11:05;8.30;99.90
8715;DHT22;4394;51.208;8.904;2023-03-26T08:14:02;8.30;99.90
8715;DHT22;4394;51.208;8.904;2023-03-26T08:16:56;8.40;99.90
8715;DHT22;4394;51.208;8.904;2023-03-26T08:20:02;8.40;99.90
8715;DHT22;4394;51.208;8.904;2023-03-26T08:22:56;8.40;99.90
8715;DHT22;4394;51.208;8.904;2023-03-26T08:25:54;8.40;99.90
8715;DHT22;4394;51.208;8.904;2023-03-26T08:28:55;8.50;99.90
8715;DHT22;4394;51.208;8.904;2023-03-26T08:31:47;8.50;99.90
8715;DHT22;4394;51.208;8.904;2023-03-26T08:34:35;8.50;99.90
8715;DHT22;4394;51.208;8.904;2023-03-26T08:37:23;8.60;99.90
8715;DHT22;4394;51.208;8.904;2023-03-26T08:40:15;8.60;99.90
8715;DHT22;4394;51.208;8.904;2023-03-26T08:43:20;8.70;99.90
8715;DHT22;4394;51.208;8.904;2023-03-26T08:46:27;8.70;99.90
8715;DHT22;4394;51.208;8.904;2023-03-26T08:49:37;8.70;99.90
8715;DHT22;4394;51.208;8.904;2023-03-26T08:52:49;8.70;99.90
8715;DHT22;4394;51.208;8.904;2023-03-26T08:55:50;8.80;99.90
8715;DHT22;4394;51.208;8.904;2023-03-26T09:05:57;8.80;99.90
8715;DHT22;4394;51.208;8.904;2023-03-26T09:23:02;8.90;99.90
8715;DHT22;4394;51.208;8.904;2023-03-26T09:26:24;9.00;99.90
8715;DHT22;4394;51.208;8.904;2023-03-26T09:29:40;9.00;99.90
8715;DHT22;4394;51.208;8.904;2023-03-26T09:36:20;9.00;99.90
8715;DHT22;4394;51.208;8.904;2023-03-26T09:39:16;9.00;99.90
8715;DHT22;4394;51.208;8.904;2023-03-26T09:42:16;9.60;99.90
8715;DHT22;4394;51.208;8.904;2023-03-26T09:45:24;9.40;99.90
8715;DHT22;4394;51.208;8.904;2023-03-26T09:48:38;9.30;99.90
8715;DHT22;4394;51.208;8.904;2023-03-26T09:51:46;9.20;99.90
8715;DHT22;4394;51.208;8.904;2023-03-26T09:54:56;9.20;99.90
8715;DHT22;4394;51.208;8.904;2023-03-26T10:01:11;9.20;99.90
8715;DHT22;4394;51.208;8.904;2023-03-26T10:04:30;9.20;99.90
8715;DHT22;4394;51.208;8.904;2023-03-26T10:07:40;9.20;99.90
8715;DHT22;4394;51.208;8.904;2023-03-26T10:10:42;9.20;99.90
8715;DHT22;4394;51.208;8.904;2023-03-26T10:13:43;9.20;99.90
8715;DHT22;4394;51.208;8.904;2023-03-26T10:16:44;9.20;99.90
8715;DHT22;4394;51.208;8.904;2023-03-26T10:19:48;9.20;99.90
8715;DHT22;4394;51.208;8.904;2023-03-26T10:22:45;9.20;99.90
8715;DHT22;4394;51.208;8.904;2023-03-26T10:25:57;9.20;99.90
8715;DHT22;4394;51.208;8.904;2023-03-26T10:29:07;9.30;99.90
8715;DHT22;4394;51.208;8.904;2023-03-26T10:32:08;9.30;99.90
8715;DHT22;4394;51.208;8.904;2023-03-26T10:35:16;9.30;99.90
8715;DHT22;4394;51.208;8.904;2023-03-26T10:38:14;9.20;99.90
8715;DHT22;4394;51.208;8.904;2023-03-26T10:41:08;9.20;99.90
8715;DHT22;4394;51.208;8.904;2023-03-26T10:44:38;9.20;99.90
8715;DHT22;4394;51.208;8.904;2023-03-26T10:47:44;9.20;99.90
8715;DHT22;4394;51.208;8.904;2023-03-26T10:50:54;9.20;99.90
8715;DHT22;4394;51.208;8.904;2023-03-26T10:53:50;9.10;99.90
8715;DHT22;4394;51.208;8.904;2023-03-26T10:56:44;9.00;99.90
8715;DHT22;4394;51.208;8.904;2023-03-26T10:59:33;9.00;99.90
8715;DHT22;4394;51.208;8.904;2023-03-26T11:02:28;8.90;99.90
8715;DHT22;4394;51.208;8.904;2023-03-26T11:05:28;8.90;99.90
8715;DHT22;4394;51.208;8.904;2023-03-26T11:08:24;8.90;99.90
8715;DHT22;4394;51.208;8.904;2023-03-26T11:11:23;8.90;99.90
8715;DHT22;4394;51.208;8.904;2023-03-26T11:14:19;8.80;99.90
8715;DHT22;4394;51.208;8.904;2023-03-26T11:17:28;8.80;99.90
8715;DHT22;4394;51.208;8.904;2023-03-26T11:20:34;8.70;99.90
8715;DHT22;4394;51.208;8.904;2023-03-26T11:23:33;8.70;99.90
8715;DHT22;4394;51.208;8.904;2023-03-26T11:26:27;8.60;99.90
8715;DHT22;4394;51.208;8.904;2023-03-26T11:29:34;8.70;99.90
8715;DHT22;4394;51.208;8.904;2023-03-26T11:32:31;8.60;99.90
8715;DHT22;4394;51.208;8.904;2023-03-26T11:35:26;8.60;99.90
8715;DHT22;4394;51.208;8.904;2023-03-26T11:38:32;8.60;99.90
8715;DHT22;4394;51.208;8.904;2023-03-26T11:41:25;8.60;99.90
8715;DHT22;4394;51.208;8.904;2023-03-26T11:44:18;8.60;99.90
8715;DHT22;4394;51.208;8.904;2023-03-26T11:47:09;8.50;99.90
8715;DHT22;4394;51.208;8.904;2023-03-26T11:50:01;8.50;99.90
8715;DHT22;4394;51.208;8.904;2023-03-26T11:52:50;8.60;99.90
8715;DHT22;4394;51.208;8.904;2023-03-26T11:55:41;8.60;99.90
8715;DHT22;4394;51.208;8.904;2023-03-26T11:58:34;8.60;99.90
8715;DHT22;4394;51.208;8.904;2023-03-26T12:01:25;8.60;99.90
8715;DHT22;4394;51.208;8.904;2023-03-26T12:04:19;8.60;99.90
8715;DHT22;4394;51.208;8.904;2023-03-26T12:07:15;8.60;99.90
8715;DHT22;4394;51.208;8.904;2023-03-26T12:10:06;8.50;99.90
8715;DHT22;4394;51.208;8.904;2023-03-26T12:13:24;8.60;99.90
8715;DHT22;4394;51.208;8.904;2023-03-26T12:16:17;8.60;99.90
8715;DHT22;4394;51.208;8.904;2023-03-26T12:19:18;8.60;99.90
8715;DHT22;4394;51.208;8.904;2023-03-26T12:22:26;8.60;99.90
8715;DHT22;4394;51.208;8.904;2023-03-26T12:25:16;8.70;99.90
8715;DHT22;4394;51.208;8.904;2023-03-26T12:28:17;8.70;99.90
8715;DHT22;4394;51.208;8.904;2023-03-26T12:31:09;8.80;99.90
8715;DHT22;4394;51.208;8.904;2023-03-26T12:34:10;8.70;99.90
8715;DHT22;4394;51.208;8.904;2023-03-26T12:37:03;8.80;99.90
8715;DHT22;4394;51.208;8.904;2023-03-26T12:40:04;8.80;99.90
8715;DHT22;4394;51.208;8.904;2023-03-26T12:43:04;8.90;99.90
8715;DHT22;4394;51.208;8.904;2023-03-26T12:46:23;8.90;99.90
8715;DHT22;4394;51.208;8.904;2023-03-26T12:49:31;8.90;99.90
8715;DHT22;4394;51.208;8.904;2023-03-26T12:52:32;8.90;99.90
8715;DHT22;4394;51.208;8.904;2023-03-26T12:55:38;8.90;99.90
8715;DHT22;4394;51.208;8.904;2023-03-26T12:58:37;9.00;99.90
8715;DHT22;4394;51.208;8.904;2023-03-26T13:01:40;9.00;99.90
8715;DHT22;4394;51.208;8.904;2023-03-26T13:04:45;9.00;99.90
8715;DHT22;4394;51.208;8.904;2023-03-26T13:08:03;9.00;99.90
8715;DHT22;4394;51.208;8.904;2023-03-26T13:11:00;9.00;99.90
8715;DHT22;4394;51.208;8.904;2023-03-26T13:14:08;9.00;99.90
8715;DHT22;4394;51.208;8.904;2023-03-26T13:17:03;9.00;99.90
8715;DHT22;4394;51.208;8.904;2023-03-26T13:20:00;9.00;99.90
8715;DHT22;4394;51.208;8.904;2023-03-26T13:22:58;9.00;99.90
8715;DHT22;4394;51.208;8.904;2023-03-26T13:25:57;9.10;99.90
8715;DHT22;4394;51.208;8.904;2023-03-26T13:28:54;9.10;99.90
8715;DHT22;4394;51.208;8.904;2023-03-26T13:31:50;9.10;99.90
8715;DHT22;4394;51.208;8.904;2023-03-26T13:34:54;9.20;99.90
8715;DHT22;4394;51.208;8.904;2023-03-26T13:37:48;9.20;99.90
8715;DHT22;4394;51.208;8.904;2023-03-26T13:40:47;9.10;99.90
8715;DHT22;4394;51.208;8.904;2023-03-26T13:43:43;9.10;99.90
8715;DHT22;4394;51.208;8.904;2023-03-26T13:46:35;9.10;99.90
8715;DHT22;4394;51.208;8.904;2023-03-26T13:49:29;9.10;99.90
8715;DHT22;4394;51.208;8.904;2023-03-26T13:52:26;9.10;99.90
8715;DHT22;4394;51.208;8.904;2023-03-26T13:55:20;9.10;99.90
8715;DHT22;4394;51.208;8.904;2023-03-26T13:58:15;9.20;99.90
8715;DHT22;4394;51.208;8.904;2023-03-26T14:01:09;9.20;99.90
8715;DHT22;4394;51.208;8.904;2023-03-26T14:04:07;9.20;99.90
8715;DHT22;4394;51.208;8.904;2023-03-26T14:07:07;9.20;99.90
8715;DHT22;4394;51.208;8.904;2023-03-26T14:10:02;9.30;99.90
8715;DHT22;4394;51.208;8.904;2023-03-26T14:12:55;9.30;99.90
8715;DHT22;4394;51.208;8.904;2023-03-26T14:15:47;9.30;99.90
8715;DHT22;4394;51.208;8.904;2023-03-26T14:18:42;9.40;99.90
8715;DHT22;4394;51.208;8.904;2023-03-26T14:21:40;9.40;99.90
8715;DHT22;4394;51.208;8.904;2023-03-26T14:24:47;9.40;99.90
8715;DHT22;4394;51.208;8.904;2023-03-26T14:31:14;9.40;99.90
8715;DHT22;4394;51.208;8.904;2023-03-26T14:34:33;9.40;99.90
8715;DHT22;4394;51.208;8.904;2023-03-26T14:37:51;9.50;99.90
8715;DHT22;4394;51.208;8.904;2023-03-26T14:40:56;9.50;99.90
8715;DHT22;4394;51.208;8.904;2023-03-26T14:47:18;9.50;99.90
8715;DHT22;4394;51.208;8.904;2023-03-26T14:50:50;9.50;99.90
8715;DHT22;4394;51.208;8.904;2023-03-26T14:53:43;9.60;99.90
8715;DHT22;4394;51.208;8.904;2023-03-26T14:56:51;9.50;99.90
8715;DHT22;4394;51.208;8.904;2023-03-26T15:21:38;9.40;99.90
8715;DHT22;4394;51.208;8.904;2023-03-26T15:25:01;9.40;99.90
8715;DHT22;4394;51.208;8.904;2023-03-26T15:28:06;9.30;99.90
8715;DHT22;4394;51.208;8.904;2023-03-26T15:31:10;9.30;99.90
8715;DHT22;4394;51.208;8.904;2023-03-26T15:37:55;9.30;99.90
8715;DHT22;4394;51.208;8.904;2023-03-26T15:44:25;9.20;99.90
8715;DHT22;4394;51.208;8.904;2023-03-26T15:47:30;9.20;99.90
8715;DHT22;4394;51.208;8.904;2023-03-26T15:50:28;9.10;99.90
8715;DHT22;4394;51.208;8.904;2023-03-26T15:53:30;9.10;99.90
8715;DHT22;4394;51.208;8.904;2023-03-26T15:59:46;9.10;99.90
8715;DHT22;4394;51.208;8.904;2023-03-26T16:02:42;9.00;99.90
8715;DHT22;4394;51.208;8.904;2023-03-26T16:05:48;9.00;99.90
8715;DHT22;4394;51.208;8.904;2023-03-26T16:08:49;9.00;99.90
8715;DHT22;4394;51.208;8.904;2023-03-26T16:11:47;8.90;99.90
8715;DHT22;4394;51.208;8.904;2023-03-26T16:14:45;8.90;99.90
8715;DHT22;4394;51.208;8.904;2023-03-26T16:24:28;8.80;99.90
8715;DHT22;4394;51.208;8.904;2023-03-26T16:27:29;8.80;99.90
8715;DHT22;4394;51.208;8.904;2023-03-26T16:30:26;8.80;99.90
8715;DHT22;4394;51.208;8.904;2023-03-26T16:33:18;8.80;99.90
8715;DHT22;4394;51.208;8.904;2023-03-26T16:36:22;8.80;99.90
8715;DHT22;4394;51.208;8.904;2023-03-26T16:39:18;8.70;99.90
8715;DHT22;4394;51.208;8.904;2023-03-26T16:42:31;8.70;99.90
8715;DHT22;4394;51.208;8.904;2023-03-26T16:45:23;8.70;99.90
8715;DHT22;4394;51.208;8.904;2023-03-26T16:48:23;8.70;99.90
8715;DHT22;4394;51.208;8.904;2023-03-26T16:51:15;8.60;99.90
8715;DHT22;4394;51.208;8.904;2023-03-26T16:54:15;8.60;99.90
8715;DHT22;4394;51.208;8.904;2023-03-26T16:57:14;8.50;99.90
8715;DHT22;4394;51.208;8.904;2023-03-26T17:00:25;8.60;99.90
8715;DHT22;4394;51.208;8.904;2023-03-26T17:03:25;8.50;99.90
8715;DHT22;4394;51.208;8.904;2023-03-26T17:09:40;8.50;99.90
8715;DHT22;4394;51.208;8.904;2023-03-26T17:12:39;8.40;99.90
8715;DHT22;4394;51.208;8.904;2023-03-26T17:15:35;8.40;99.90
8715;DHT22;4394;51.208;8.904;2023-03-26T17:18:34;8.40;99.90
8715;DHT22;4394;51.208;8.904;2023-03-26T17:21:31;8.40;99.90
8715;DHT22;4394;51.208;8.904;2023-03-26T17:24:41;8.40;99.90
8715;DHT22;4394;51.208;8.904;2023-03-26T17:27:37;8.20;99.90
8715;DHT22;4394;51.208;8.904;2023-03-26T17:30:48;8.20;99.90
8715;DHT22;4394;51.208;8.904;2023-03-26T17:33:38;8.20;99.90
8715;DHT22;4394;51.208;8.904;2023-03-26T17:36:39;8.20;99.90
8715;DHT22;4394;51.208;8.904;2023-03-26T17:40:24;8.30;99.90
8715;DHT22;4394;51.208;8.904;2023-03-26T17:43:07;8.20;99.90
8715;DHT22;4394;51.208;8.904;2023-03-26T17:45:55;8.20;99.90
8715;DHT22;4394;51.208;8.904;2023-03-26T17:48:56;8.20;99.90
8715;DHT22;4394;51.208;8.904;2023-03-26T17:51:49;8.20;99.90
8715;DHT22;4394;51.208;8.904;2023-03-26T17:54:42;8.10;99.90
8715;DHT22;4394;51.208;8.904;2023-03-26T17:57:37;8.00;99.90
8715;DHT22;4394;51.208;8.904;2023-03-26T18:00:32;8.00;99.90
8715;DHT22;4394;51.208;8.904;2023-03-26T18:03:26;7.90;99.90
8715;DHT22;4394;51.208;8.904;2023-03-26T18:06:32;7.80;99.90
8715;DHT22;4394;51.208;8.904;2023-03-26T18:09:40;7.70;99.90
8715;DHT22;4394;51.208;8.904;2023-03-26T18:12:40;7.60;99.90
8715;DHT22;4394;51.208;8.904;2023-03-26T18:15:47;7.60;99.90
8715;DHT22;4394;51.208;8.904;2023-03-26T18:18:41;7.60;99.90
8715;DHT22;4394;51.208;8.904;2023-03-26T18:21:34;7.50;99.90
8715;DHT22;4394;51.208;8.904;2023-03-26T18:24:25;7.50;99.90
8715;DHT22;4394;51.208;8.904;2023-03-26T18:27:15;7.50;99.90
8715;DHT22;4394;51.208;8.904;2023-03-26T18:30:14;7.50;99.90
8715;DHT22;4394;51.208;8.904;2023-03-26T18:33:11;7.50;99.90
8715;DHT22;4394;51.208;8.904;2023-03-26T18:36:00;7.40;99.90
8715;DHT22;4394;51.208;8.904;2023-03-26T18:38:49;7.30;99.90
8715;DHT22;4394;51.208;8.904;2023-03-26T18:41:38;7.30;99.90
8715;DHT22;4394;51.208;8.904;2023-03-26T18:44:27;7.30;99.90
8715;DHT22;4394;51.208;8.904;2023-03-26T18:47:16;7.30;99.90
8715;DHT22;4394;51.208;8.904;2023-03-26T18:50:12;7.30;99.90
8715;DHT22;4394;51.208;8.904;2023-03-26T18:53:02;7.30;99.90
8715;DHT22;4394;51.208;8.904;2023-03-26T18:55:52;7.30;99.90
8715;DHT22;4394;51.208;8.904;2023-03-26T18:58:40;7.30;99.90
8715;DHT22;4394;51.208;8.904;2023-03-26T19:01:30;7.30;99.90
8715;DHT22;4394;51.208;8.904;2023-03-26T19:04:19;7.30;99.90
8715;DHT22;4394;51.208;8.904;2023-03-26T19:07:11;7.30;99.90
8715;DHT22;4394;51.208;8.904;2023-03-26T19:10:00;7.20;99.90
8715;DHT22;4394;51.208;8.904;2023-03-26T19:12:54;7.00;99.90
8715;DHT22;4394;51.208;8.904;2023-03-26T19:15:44;6.90;99.90
8715;DHT22;4394;51.208;8.904;2023-03-26T19:18:39;6.80;99.90
8715;DHT22;4394;51.208;8.904;2023-03-26T19:21:31;6.70;99.90
8715;DHT22;4394;51.208;8.904;2023-03-26T19:24:21;6.70;99.90
8715;DHT22;4394;51.208;8.904;2023-03-26T19:27:10;6.70;99.90
8715;DHT22;4394;51.208;8.904;2023-03-26T19:29:58;6.70;99.90
8715;DHT22;4394;51.208;8.904;2023-03-26T19:32:51;6.60;99.90
8715;DHT22;4394;51.208;8.904;2023-03-26T19:35:41;6.60;99.90
8715;DHT22;4394;51.208;8.904;2023-03-26T19:38:37;6.60;99.90
8715;DHT22;4394;51.208;8.904;2023-03-26T19:41:32;6.60;99.90
8715;DHT22;4394;51.208;8.904;2023-03-26T19:44:25;6.50;99.90
8715;DHT22;4394;51.208;8.904;2023-03-26T19:47:17;6.40;99.90
8715;DHT22;4394;51.208;8.904;2023-03-26T19:50:19;6.50;99.90
8715;DHT22;4394;51.208;8.904;2023-03-26T19:53:13;6.40;99.90
8715;DHT22;4394;51.208;8.904;2023-03-26T19:56:10;6.30;99.90
8715;DHT22;4394;51.208;8.904;2023-03-26T19:59:00;6.20;99.90
8715;DHT22;4394;51.208;8.904;2023-03-26T20:01:48;6.00;99.90
8715;DHT22;4394;51.208;8.904;2023-03-26T20:04:36;5.70;99.90
8715;DHT22;4394;51.208;8.904;2023-03-26T20:07:24;5.70;99.90
8715;DHT22;4394;51.208;8.904;2023-03-26T20:10:22;5.70;99.90
8715;DHT22;4394;51.208;8.904;2023-03-26T20:13:14;5.70;99.90
8715;DHT22;4394;51.208;8.904;2023-03-26T20:16:07;5.60;99.90
8715;DHT22;4394;51.208;8.904;2023-03-26T20:18:58;5.50;99.90
8715;DHT22;4394;51.208;8.904;2023-03-26T20:21:48;5.50;99.90
8715;DHT22;4394;51.208;8.904;2023-03-26T20:24:38;5.50;99.90
8715;DHT22;4394;51.208;8.904;2023-03-26T20:27:27;5.50;99.90
8715;DHT22;4394;51.208;8.904;2023-03-26T20:30:15;5.50;99.90
8715;DHT22;4394;51.208;8.904;2023-03-26T20:33:24;5.50;99.90
8715;DHT22;4394;51.208;8.904;2023-03-26T20:36:13;5.50;99.90
8715;DHT22;4394;51.208;8.904;2023-03-26T20:39:21;5.50;99.90